createdAt,value
2022-12-02T00:00:04.742Z,33.750000
2022-12-02T00:01:01.041Z,22.500000
2022-12-02T00:02:01.970Z,22.500000
2022-12-02T00:03:01.129Z,22.500000
2022-12-02T00:04:01.306Z,22.500000
2022-12-02T00:05:05.205Z,22.500000
2022-12-02T00:06:01.995Z,22.500000
2022-12-02T00:07:01.077Z,22.500000
2022-12-02T00:08:01.259Z,22.500000
2022-12-02T00:09:01.088Z,22.500000
2022-12-02T00:10:04.864Z,45.000000
2022-12-02T00:11:01.094Z,45.000000
2022-12-02T00:12:01.174Z,45.000000
2022-12-02T00:13:01.091Z,45.000000
2022-12-02T00:14:01.167Z,22.500000
2022-12-02T00:15:05.404Z,22.500000
2022-12-02T00:16:01.247Z,22.500000
2022-12-02T00:17:01.175Z,33.750000
2022-12-02T00:18:01.211Z,33.750000
2022-12-02T00:19:01.133Z,33.750000
2022-12-02T00:20:04.623Z,33.750000
2022-12-02T00:21:01.185Z,33.750000
2022-12-02T00:22:01.274Z,45.000000
2022-12-02T00:23:01.175Z,45.000000
2022-12-02T00:24:02.003Z,45.000000
2022-12-02T00:25:05.342Z,45.000000
2022-12-02T00:26:00.244Z,45.000000
2022-12-02T00:27:00.240Z,11.250000
2022-12-02T00:28:00.263Z,11.250000
2022-12-02T00:29:00.231Z,11.250000
2022-12-02T00:30:03.790Z,45.000000
2022-12-02T00:31:00.239Z,45.000000
2022-12-02T00:32:00.466Z,45.000000
2022-12-02T00:33:00.280Z,22.500000
2022-12-02T00:34:00.318Z,22.500000
2022-12-02T00:35:04.476Z,33.750000
2022-12-02T00:36:00.361Z,33.750000
2022-12-02T00:37:00.270Z,11.250000
2022-12-02T00:38:00.363Z,11.250000
2022-12-02T00:39:00.328Z,11.250000
2022-12-02T00:40:03.716Z,22.500000
2022-12-02T00:41:00.321Z,22.500000
2022-12-02T00:42:00.397Z,45.000000
2022-12-02T00:43:00.320Z,45.000000
2022-12-02T00:44:00.431Z,45.000000
2022-12-02T00:45:03.723Z,45.000000
2022-12-02T00:46:00.500Z,45.000000
2022-12-02T00:47:00.334Z,45.000000
2022-12-02T00:48:00.422Z,33.750000
2022-12-02T00:49:00.358Z,33.750000
2022-12-02T00:50:05.352Z,33.750000
2022-12-02T00:51:00.392Z,33.750000
2022-12-02T00:52:02.001Z,33.750000
2022-12-02T00:53:00.388Z,0.000000
2022-12-02T00:54:00.496Z,0.000000
2022-12-02T00:55:03.782Z,56.250000
2022-12-02T00:56:00.495Z,56.250000
2022-12-02T00:57:00.421Z,56.250000
2022-12-02T00:58:00.517Z,45.000000
2022-12-02T00:59:00.416Z,45.000000
2022-12-02T01:00:04.901Z,22.500000
2022-12-02T01:01:00.540Z,22.500000
2022-12-02T01:02:00.644Z,22.500000
2022-12-02T01:03:00.494Z,22.500000
2022-12-02T01:04:00.557Z,22.500000
2022-12-02T01:05:03.767Z,33.750000
2022-12-02T01:06:00.561Z,33.750000
2022-12-02T01:07:00.501Z,33.750000
2022-12-02T01:08:00.740Z,45.000000
2022-12-02T01:09:00.520Z,45.000000
2022-12-02T01:10:03.944Z,11.250000
2022-12-02T01:11:00.534Z,11.250000
2022-12-02T01:12:00.624Z,45.000000
2022-12-02T01:13:00.527Z,45.000000
2022-12-02T01:14:00.634Z,45.000000
2022-12-02T01:15:03.673Z,22.500000
2022-12-02T01:16:00.699Z,22.500000
2022-12-02T01:17:00.638Z,22.500000
2022-12-02T01:18:00.655Z,33.750000
2022-12-02T01:19:00.571Z,33.750000
2022-12-02T01:20:03.917Z,11.250000
2022-12-02T01:21:00.601Z,11.250000
2022-12-02T01:22:00.690Z,11.250000
2022-12-02T01:23:00.595Z,0.000000
2022-12-02T01:24:01.996Z,0.000000
2022-12-02T01:25:03.644Z,11.250000
2022-12-02T01:26:00.749Z,11.250000
2022-12-02T01:27:00.636Z,11.250000
2022-12-02T01:28:00.722Z,22.500000
2022-12-02T01:29:00.648Z,22.500000
2022-12-02T01:30:05.330Z,11.250000
2022-12-02T01:31:00.671Z,11.250000
2022-12-02T01:32:00.828Z,22.500000
2022-12-02T01:33:00.681Z,22.500000
2022-12-02T01:34:00.745Z,22.500000
2022-12-02T01:35:03.782Z,22.500000
2022-12-02T01:36:00.791Z,22.500000
2022-12-02T01:37:00.695Z,22.500000
2022-12-02T01:38:00.789Z,22.500000
2022-12-02T01:39:00.735Z,22.500000
2022-12-02T01:40:04.385Z,11.250000
2022-12-02T01:41:00.729Z,11.250000
2022-12-02T01:42:00.853Z,11.250000
2022-12-02T01:43:00.726Z,0.000000
2022-12-02T01:44:00.832Z,0.000000
2022-12-02T01:45:05.456Z,11.250000
2022-12-02T01:46:00.961Z,11.250000
2022-12-02T01:47:00.776Z,11.250000
2022-12-02T01:48:02.026Z,22.500000
2022-12-02T01:49:00.796Z,22.500000
2022-12-02T01:50:04.053Z,22.500000
2022-12-02T01:51:00.811Z,22.500000
2022-12-02T01:52:00.869Z,22.500000
2022-12-02T01:53:00.814Z,11.250000
2022-12-02T01:54:00.888Z,11.250000
2022-12-02T01:55:03.951Z,11.250000
2022-12-02T01:56:00.925Z,22.500000
2022-12-02T01:57:00.859Z,22.500000
2022-12-02T01:58:00.947Z,11.250000
2022-12-02T01:59:00.851Z,11.250000
2022-12-02T02:00:05.435Z,11.250000
2022-12-02T02:01:00.955Z,11.250000
2022-12-02T02:02:02.117Z,11.250000
2022-12-02T02:03:00.908Z,11.250000
2022-12-02T02:04:00.981Z,11.250000
2022-12-02T02:05:03.817Z,11.250000
2022-12-02T02:06:01.002Z,0.000000
2022-12-02T02:07:00.925Z,0.000000
2022-12-02T02:08:01.071Z,0.000000
2022-12-02T02:09:00.946Z,0.000000
2022-12-02T02:10:04.578Z,0.000000
2022-12-02T02:11:00.958Z,11.250000
2022-12-02T02:12:01.047Z,11.250000
2022-12-02T02:13:00.977Z,11.250000
2022-12-02T02:14:01.083Z,33.750000
2022-12-02T02:15:03.900Z,33.750000
2022-12-02T02:16:01.990Z,11.250000
2022-12-02T02:17:01.053Z,11.250000
2022-12-02T02:18:05.176Z,22.500000
2022-12-02T02:19:01.021Z,22.500000
2022-12-02T02:20:07.035Z,22.500000
2022-12-02T02:21:01.019Z,22.500000
2022-12-02T02:22:01.106Z,22.500000
2022-12-02T02:23:01.048Z,56.250000
2022-12-02T02:24:01.145Z,56.250000
2022-12-02T02:25:03.987Z,56.250000
2022-12-02T02:26:01.153Z,67.500000
2022-12-02T02:27:01.083Z,67.500000
2022-12-02T02:28:01.157Z,22.500000
2022-12-02T02:29:01.077Z,22.500000
2022-12-02T02:30:05.615Z,22.500000
2022-12-02T02:31:01.191Z,22.500000
2022-12-02T02:32:01.190Z,22.500000
2022-12-02T02:33:01.131Z,22.500000
2022-12-02T02:34:01.187Z,22.500000
2022-12-02T02:35:04.150Z,22.500000
2022-12-02T02:36:01.219Z,22.500000
2022-12-02T02:37:01.153Z,22.500000
2022-12-02T02:38:01.235Z,22.500000
2022-12-02T02:39:01.182Z,33.750000
2022-12-02T02:40:06.034Z,33.750000
2022-12-02T02:41:00.177Z,22.500000
2022-12-02T02:42:00.258Z,22.500000
2022-12-02T02:43:00.196Z,11.250000
2022-12-02T02:44:00.280Z,11.250000
2022-12-02T02:45:03.712Z,11.250000
2022-12-02T02:46:00.427Z,22.500000
2022-12-02T02:47:00.218Z,22.500000
2022-12-02T02:48:00.309Z,22.500000
2022-12-02T02:49:00.235Z,22.500000
2022-12-02T02:50:03.726Z,22.500000
2022-12-02T02:51:00.244Z,22.500000
2022-12-02T02:52:00.315Z,22.500000
2022-12-02T02:53:00.244Z,22.500000
2022-12-02T02:54:00.335Z,22.500000
2022-12-02T02:55:03.711Z,22.500000
2022-12-02T02:56:00.384Z,11.250000
2022-12-02T02:57:00.289Z,11.250000
2022-12-02T02:58:00.342Z,11.250000
2022-12-02T02:59:00.289Z,11.250000
2022-12-02T03:00:05.198Z,11.250000
2022-12-02T03:01:00.398Z,33.750000
2022-12-02T03:02:00.439Z,33.750000
2022-12-02T03:03:00.364Z,22.500000
2022-12-02T03:04:00.376Z,22.500000
2022-12-02T03:05:04.928Z,22.500000
2022-12-02T03:06:02.060Z,22.500000
2022-12-02T03:07:00.334Z,22.500000
2022-12-02T03:08:00.519Z,22.500000
2022-12-02T03:09:00.356Z,45.000000
2022-12-02T03:10:03.751Z,45.000000
2022-12-02T03:11:00.358Z,45.000000
2022-12-02T03:12:00.438Z,33.750000
2022-12-02T03:13:00.390Z,33.750000
2022-12-02T03:14:00.465Z,33.750000
2022-12-02T03:15:03.693Z,33.750000
2022-12-02T03:16:00.469Z,22.500000
2022-12-02T03:17:00.431Z,22.500000
2022-12-02T03:18:00.517Z,22.500000
2022-12-02T03:19:00.412Z,11.250000
2022-12-02T03:20:03.874Z,11.250000
2022-12-02T03:21:00.451Z,11.250000
2022-12-02T03:22:00.490Z,22.500000
2022-12-02T03:23:00.447Z,22.500000
2022-12-02T03:24:00.538Z,22.500000
2022-12-02T03:25:03.673Z,22.500000
2022-12-02T03:26:00.555Z,22.500000
2022-12-02T03:27:00.472Z,22.500000
2022-12-02T03:28:00.544Z,22.500000
2022-12-02T03:29:00.472Z,33.750000
2022-12-02T03:30:04.934Z,33.750000
2022-12-02T03:31:00.551Z,33.750000
2022-12-02T03:32:00.603Z,22.500000
2022-12-02T03:33:00.518Z,22.500000
2022-12-02T03:34:02.047Z,22.500000
2022-12-02T03:35:05.129Z,0.000000
2022-12-02T03:36:00.636Z,0.000000
2022-12-02T03:37:00.561Z,22.500000
2022-12-02T03:38:00.638Z,22.500000
2022-12-02T03:39:00.561Z,11.250000
2022-12-02T03:40:03.890Z,11.250000
2022-12-02T03:41:00.575Z,11.250000
2022-12-02T03:42:00.641Z,11.250000
2022-12-02T03:43:00.577Z,11.250000
2022-12-02T03:44:00.691Z,11.250000
2022-12-02T03:45:03.754Z,22.500000
2022-12-02T03:46:00.723Z,22.500000
2022-12-02T03:47:00.618Z,33.750000
2022-12-02T03:48:02.047Z,33.750000
2022-12-02T03:49:00.614Z,22.500000
2022-12-02T03:50:03.953Z,22.500000
2022-12-02T03:51:00.631Z,22.500000
2022-12-02T03:52:00.732Z,11.250000
2022-12-02T03:53:00.649Z,11.250000
2022-12-02T03:54:00.732Z,11.250000
2022-12-02T03:55:03.787Z,11.250000
2022-12-02T03:56:00.760Z,11.250000
2022-12-02T03:57:00.666Z,11.250000
2022-12-02T03:58:00.727Z,11.250000
2022-12-02T03:59:00.679Z,11.250000
2022-12-02T04:00:05.203Z,0.000000
2022-12-02T04:01:00.753Z,0.000000
2022-12-02T04:02:02.133Z,11.250000
2022-12-02T04:03:00.821Z,11.250000
2022-12-02T04:04:00.785Z,11.250000
2022-12-02T04:05:03.698Z,33.750000
2022-12-02T04:06:00.850Z,33.750000
2022-12-02T04:07:00.732Z,22.500000
2022-12-02T04:08:00.881Z,22.500000
2022-12-02T04:09:00.762Z,22.500000
2022-12-02T04:10:05.368Z,11.250000
2022-12-02T04:11:00.776Z,11.250000
2022-12-02T04:12:00.858Z,22.500000
2022-12-02T04:13:00.782Z,22.500000
2022-12-02T04:14:00.899Z,22.500000
2022-12-02T04:15:03.775Z,22.500000
2022-12-02T04:16:02.121Z,22.500000
2022-12-02T04:17:06.804Z,22.500000
2022-12-02T04:18:00.917Z,22.500000
2022-12-02T04:19:00.846Z,22.500000
2022-12-02T04:20:04.377Z,33.750000
2022-12-02T04:21:00.877Z,33.750000
2022-12-02T04:22:00.955Z,11.250000
2022-12-02T04:23:00.870Z,11.250000
2022-12-02T04:24:00.960Z,11.250000
2022-12-02T04:25:03.898Z,11.250000
2022-12-02T04:26:00.999Z,11.250000
2022-12-02T04:27:00.892Z,0.000000
2022-12-02T04:28:00.982Z,0.000000
2022-12-02T04:29:00.898Z,0.000000
2022-12-02T04:30:06.232Z,22.500000
2022-12-02T04:31:00.979Z,22.500000
2022-12-02T04:32:01.045Z,11.250000
2022-12-02T04:33:00.965Z,11.250000
2022-12-02T04:34:01.027Z,11.250000
2022-12-02T04:35:03.936Z,11.250000
2022-12-02T04:36:01.050Z,11.250000
2022-12-02T04:37:00.973Z,11.250000
2022-12-02T04:38:01.106Z,11.250000
2022-12-02T04:39:00.979Z,11.250000
2022-12-02T04:40:04.804Z,11.250000
2022-12-02T04:41:01.091Z,11.250000
2022-12-02T04:42:01.079Z,22.500000
2022-12-02T04:43:00.989Z,22.500000
2022-12-02T04:44:02.049Z,22.500000
2022-12-02T04:45:04.305Z,22.500000
2022-12-02T04:46:01.146Z,22.500000
2022-12-02T04:47:01.119Z,22.500000
2022-12-02T04:48:01.137Z,22.500000
2022-12-02T04:49:01.048Z,22.500000
2022-12-02T04:50:05.626Z,33.750000
2022-12-02T04:51:01.061Z,33.750000
2022-12-02T04:52:01.156Z,33.750000
2022-12-02T04:53:01.055Z,22.500000
2022-12-02T04:54:01.221Z,22.500000
2022-12-02T04:55:03.992Z,33.750000
2022-12-02T04:56:01.178Z,33.750000
2022-12-02T04:57:01.104Z,33.750000
2022-12-02T04:58:02.023Z,33.750000
2022-12-02T04:59:01.110Z,33.750000
2022-12-02T05:00:06.911Z,22.500000
2022-12-02T05:01:01.145Z,22.500000
2022-12-02T05:02:01.237Z,22.500000
2022-12-02T05:03:01.336Z,33.750000
2022-12-02T05:04:01.340Z,33.750000
2022-12-02T05:05:04.224Z,33.750000
2022-12-02T05:06:01.251Z,33.750000
2022-12-02T05:07:01.166Z,22.500000
2022-12-02T05:08:01.348Z,22.500000
2022-12-02T05:09:00.205Z,22.500000
2022-12-02T05:10:03.865Z,11.250000
2022-12-02T05:11:00.199Z,11.250000
2022-12-02T05:12:00.316Z,11.250000
2022-12-02T05:13:00.204Z,33.750000
2022-12-02T05:14:00.295Z,33.750000
2022-12-02T05:15:03.675Z,33.750000
2022-12-02T05:16:00.459Z,33.750000
2022-12-02T05:17:00.244Z,33.750000
2022-12-02T05:18:00.296Z,22.500000
2022-12-02T05:19:00.237Z,22.500000
2022-12-02T05:20:04.651Z,22.500000
2022-12-02T05:21:00.250Z,22.500000
2022-12-02T05:22:00.328Z,22.500000
2022-12-02T05:23:00.269Z,33.750000
2022-12-02T05:24:00.368Z,33.750000
2022-12-02T05:25:04.987Z,33.750000
2022-12-02T05:26:00.395Z,33.750000
2022-12-02T05:27:00.312Z,33.750000
2022-12-02T05:28:00.377Z,22.500000
2022-12-02T05:29:00.308Z,22.500000
2022-12-02T05:30:03.792Z,22.500000
2022-12-02T05:31:00.381Z,22.500000
2022-12-02T05:32:00.434Z,22.500000
2022-12-02T05:33:00.346Z,33.750000
2022-12-02T05:34:00.424Z,33.750000
2022-12-02T05:35:03.686Z,33.750000
2022-12-02T05:36:00.447Z,22.500000
2022-12-02T05:37:00.396Z,22.500000
2022-12-02T05:38:04.741Z,22.500000
2022-12-02T05:39:00.412Z,22.500000
2022-12-02T05:40:03.756Z,22.500000
2022-12-02T05:41:00.422Z,33.750000
2022-12-02T05:42:00.488Z,33.750000
2022-12-02T05:43:00.399Z,33.750000
2022-12-02T05:44:00.519Z,33.750000
2022-12-02T05:45:04.760Z,33.750000
2022-12-02T05:46:00.516Z,33.750000
2022-12-02T05:47:00.535Z,33.750000
2022-12-02T05:48:00.543Z,33.750000
2022-12-02T05:49:00.459Z,33.750000
2022-12-02T05:50:04.974Z,22.500000
2022-12-02T05:51:00.479Z,22.500000
2022-12-02T05:52:00.532Z,22.500000
2022-12-02T05:53:00.485Z,22.500000
2022-12-02T05:54:00.565Z,22.500000
2022-12-02T05:55:04.737Z,22.500000
2022-12-02T05:56:00.603Z,22.500000
2022-12-02T05:57:00.537Z,22.500000
2022-12-02T05:58:00.569Z,22.500000
2022-12-02T05:59:00.504Z,22.500000
2022-12-02T06:00:04.189Z,22.500000
2022-12-02T06:01:00.554Z,33.750000
2022-12-02T06:02:00.792Z,33.750000
2022-12-02T06:03:00.732Z,33.750000
2022-12-02T06:04:00.631Z,33.750000
2022-12-02T06:05:03.684Z,33.750000
2022-12-02T06:06:00.657Z,56.250000
2022-12-02T06:07:00.596Z,56.250000
2022-12-02T06:08:00.842Z,56.250000
2022-12-02T06:09:00.607Z,22.500000
2022-12-02T06:10:05.056Z,22.500000
2022-12-02T06:11:00.620Z,22.500000
2022-12-02T06:12:00.722Z,22.500000
2022-12-02T06:13:00.650Z,22.500000
2022-12-02T06:14:00.731Z,22.500000
2022-12-02T06:15:03.796Z,22.500000
2022-12-02T06:16:00.859Z,33.750000
2022-12-02T06:17:00.694Z,33.750000
2022-12-02T06:18:00.749Z,33.750000
2022-12-02T06:19:00.673Z,33.750000
2022-12-02T06:20:05.638Z,33.750000
2022-12-02T06:21:00.782Z,33.750000
2022-12-02T06:22:00.789Z,33.750000
2022-12-02T06:23:00.727Z,33.750000
2022-12-02T06:24:00.824Z,33.750000
2022-12-02T06:25:03.682Z,33.750000
2022-12-02T06:26:00.951Z,22.500000
2022-12-02T06:27:00.767Z,22.500000
2022-12-02T06:28:03.581Z,22.500000
2022-12-02T06:29:00.810Z,11.250000
2022-12-02T06:30:05.361Z,11.250000
2022-12-02T06:31:00.783Z,11.250000
2022-12-02T06:32:01.077Z,56.250000
2022-12-02T06:33:00.799Z,56.250000
2022-12-02T06:34:00.887Z,11.250000
2022-12-02T06:35:03.881Z,11.250000
2022-12-02T06:36:00.905Z,11.250000
2022-12-02T06:37:00.798Z,22.500000
2022-12-02T06:38:00.935Z,22.500000
2022-12-02T06:39:00.842Z,22.500000
2022-12-02T06:40:27.370Z,22.500000
2022-12-02T06:41:00.840Z,22.500000
2022-12-02T06:42:00.921Z,45.000000
2022-12-02T06:43:00.852Z,45.000000
2022-12-02T06:44:00.953Z,45.000000
2022-12-02T06:45:03.757Z,45.000000
2022-12-02T06:46:00.972Z,45.000000
2022-12-02T06:47:00.857Z,45.000000
2022-12-02T06:48:00.965Z,45.000000
2022-12-02T06:49:00.884Z,33.750000
2022-12-02T06:50:04.364Z,33.750000
2022-12-02T06:51:00.905Z,33.750000
2022-12-02T06:52:00.992Z,22.500000
2022-12-02T06:53:00.901Z,22.500000
2022-12-02T06:54:01.022Z,22.500000
2022-12-02T06:55:04.014Z,33.750000
2022-12-02T06:56:01.035Z,33.750000
2022-12-02T06:57:00.947Z,33.750000
2022-12-02T06:58:01.009Z,33.750000
2022-12-02T06:59:00.968Z,45.000000
2022-12-02T07:00:08.402Z,45.000000
2022-12-02T07:01:01.145Z,33.750000
2022-12-02T07:02:04.896Z,33.750000
2022-12-02T07:03:01.044Z,33.750000
2022-12-02T07:04:01.019Z,67.500000
2022-12-02T07:05:03.997Z,67.500000
2022-12-02T07:06:01.070Z,67.500000
2022-12-02T07:07:00.992Z,33.750000
2022-12-02T07:08:01.162Z,33.750000
2022-12-02T07:09:01.021Z,33.750000
2022-12-02T07:10:07.740Z,33.750000
2022-12-02T07:11:01.019Z,22.500000
2022-12-02T07:12:01.107Z,22.500000
2022-12-02T07:13:01.040Z,22.500000
2022-12-02T07:14:01.131Z,22.500000
2022-12-02T07:15:05.631Z,22.500000
2022-12-02T07:16:01.170Z,22.500000
2022-12-02T07:17:01.129Z,33.750000
2022-12-02T07:18:01.150Z,33.750000
2022-12-02T07:19:01.059Z,33.750000
2022-12-02T07:20:05.476Z,22.500000
2022-12-02T07:21:01.101Z,22.500000
2022-12-02T07:22:01.144Z,33.750000
2022-12-02T07:23:01.090Z,33.750000
2022-12-02T07:24:01.186Z,33.750000
2022-12-02T07:25:04.059Z,33.750000
2022-12-02T07:26:01.235Z,33.750000
2022-12-02T07:27:05.661Z,33.750000
2022-12-02T07:28:01.206Z,33.750000
2022-12-02T07:29:14.844Z,11.250000
2022-12-02T07:30:05.624Z,11.250000
2022-12-02T07:31:01.249Z,11.250000
2022-12-02T07:32:01.277Z,33.750000
2022-12-02T07:33:01.180Z,33.750000
2022-12-02T07:34:01.224Z,33.750000
2022-12-02T07:35:05.323Z,33.750000
2022-12-02T07:36:01.251Z,33.750000
2022-12-02T07:37:01.201Z,33.750000
2022-12-02T07:38:01.271Z,33.750000
2022-12-02T07:39:07.061Z,33.750000
2022-12-02T07:40:04.559Z,33.750000
2022-12-02T07:41:00.195Z,33.750000
2022-12-02T07:42:00.292Z,45.000000
2022-12-02T07:43:00.207Z,45.000000
2022-12-02T07:44:00.319Z,33.750000
2022-12-02T07:45:03.657Z,33.750000
2022-12-02T07:46:00.337Z,33.750000
2022-12-02T07:47:00.247Z,33.750000
2022-12-02T07:48:00.354Z,33.750000
2022-12-02T07:49:00.269Z,33.750000
2022-12-02T07:50:04.695Z,33.750000
2022-12-02T07:51:00.301Z,33.750000
2022-12-02T07:52:00.349Z,33.750000
2022-12-02T07:53:00.298Z,33.750000
2022-12-02T07:54:00.366Z,33.750000
2022-12-02T07:55:03.694Z,22.500000
2022-12-02T07:56:00.412Z,22.500000
2022-12-02T07:57:00.333Z,33.750000
2022-12-02T07:58:00.399Z,33.750000
2022-12-02T07:59:12.037Z,33.750000
2022-12-02T08:00:07.796Z,33.750000
2022-12-02T08:01:00.418Z,33.750000
2022-12-02T08:02:00.583Z,33.750000
2022-12-02T08:03:00.384Z,33.750000
2022-12-02T08:04:00.863Z,33.750000
2022-12-02T08:05:04.676Z,22.500000
2022-12-02T08:06:01.044Z,22.500000
2022-12-02T08:07:00.395Z,11.250000
2022-12-02T08:08:00.512Z,11.250000
2022-12-02T08:09:00.412Z,11.250000
2022-12-02T08:10:05.765Z,11.250000
2022-12-02T08:11:00.419Z,11.250000
2022-12-02T08:12:00.513Z,11.250000
2022-12-02T08:13:00.435Z,11.250000
2022-12-02T08:14:00.525Z,11.250000
2022-12-02T08:15:03.768Z,22.500000
2022-12-02T08:16:00.557Z,22.500000
2022-12-02T08:17:00.491Z,22.500000
2022-12-02T08:18:00.546Z,22.500000
2022-12-02T08:19:00.484Z,22.500000
2022-12-02T08:20:05.127Z,22.500000
2022-12-02T08:21:02.317Z,22.500000
2022-12-02T08:22:00.539Z,22.500000
2022-12-02T08:23:00.490Z,33.750000
2022-12-02T08:24:00.577Z,33.750000
2022-12-02T08:25:03.788Z,22.500000
2022-12-02T08:26:00.622Z,22.500000
2022-12-02T08:27:00.557Z,22.500000
2022-12-02T08:28:00.619Z,22.500000
2022-12-02T08:29:00.550Z,22.500000
2022-12-02T08:30:08.987Z,11.250000
2022-12-02T08:31:00.593Z,11.250000
2022-12-02T08:32:00.673Z,11.250000
2022-12-02T08:33:00.581Z,22.500000
2022-12-02T08:34:06.560Z,22.500000
2022-12-02T08:35:03.755Z,22.500000
2022-12-02T08:36:00.707Z,22.500000
2022-12-02T08:37:00.597Z,22.500000
2022-12-02T08:38:00.681Z,11.250000
2022-12-02T08:39:00.609Z,11.250000
2022-12-02T08:40:05.124Z,11.250000
2022-12-02T08:41:00.633Z,22.500000
2022-12-02T08:42:00.709Z,22.500000
2022-12-02T08:43:00.627Z,33.750000
2022-12-02T08:44:00.731Z,33.750000
2022-12-02T08:45:03.860Z,33.750000
2022-12-02T08:46:00.795Z,22.500000
2022-12-02T08:47:00.646Z,22.500000
2022-12-02T08:48:00.749Z,22.500000
2022-12-02T08:49:00.657Z,22.500000
2022-12-02T08:50:08.217Z,22.500000
2022-12-02T08:51:00.687Z,22.500000
2022-12-02T08:52:00.797Z,22.500000
2022-12-02T08:53:00.706Z,33.750000
2022-12-02T08:54:00.777Z,33.750000
2022-12-02T08:55:03.794Z,33.750000
2022-12-02T08:56:00.825Z,45.000000
2022-12-02T08:57:00.745Z,45.000000
2022-12-02T08:58:00.807Z,33.750000
2022-12-02T08:59:00.756Z,33.750000
2022-12-02T09:00:07.741Z,33.750000
2022-12-02T09:01:00.803Z,33.750000
2022-12-02T09:02:01.181Z,33.750000
2022-12-02T09:03:00.828Z,11.250000
2022-12-02T09:04:01.699Z,11.250000
2022-12-02T09:05:05.409Z,11.250000
2022-12-02T09:06:00.906Z,0.000000
2022-12-02T09:07:00.823Z,0.000000
2022-12-02T09:08:01.226Z,11.250000
2022-12-02T09:09:00.872Z,11.250000
2022-12-02T09:10:05.829Z,11.250000
2022-12-02T09:11:00.897Z,22.500000
2022-12-02T09:12:00.958Z,22.500000
2022-12-02T09:13:00.851Z,22.500000
2022-12-02T09:14:03.184Z,22.500000
2022-12-02T09:15:04.173Z,33.750000
2022-12-02T09:16:01.865Z,33.750000
2022-12-02T09:17:00.905Z,33.750000
2022-12-02T09:18:00.981Z,11.250000
2022-12-02T09:19:00.907Z,11.250000
2022-12-02T09:20:07.833Z,22.500000
2022-12-02T09:21:00.942Z,22.500000
2022-12-02T09:22:00.975Z,33.750000
2022-12-02T09:23:00.940Z,33.750000
2022-12-02T09:24:01.057Z,33.750000
2022-12-02T09:25:03.786Z,22.500000
2022-12-02T09:26:01.072Z,22.500000
2022-12-02T09:27:00.977Z,22.500000
2022-12-02T09:28:01.045Z,11.250000
2022-12-02T09:29:00.966Z,11.250000
2022-12-02T09:30:09.419Z,22.500000
2022-12-02T09:31:01.024Z,22.500000
2022-12-02T09:32:01.078Z,22.500000
2022-12-02T09:33:01.011Z,33.750000
2022-12-02T09:34:01.065Z,33.750000
2022-12-02T09:35:04.082Z,33.750000
2022-12-02T09:36:01.078Z,22.500000
2022-12-02T09:37:01.018Z,22.500000
2022-12-02T09:38:01.285Z,22.500000
2022-12-02T09:39:01.053Z,33.750000
2022-12-02T09:40:09.536Z,33.750000
2022-12-02T09:41:01.057Z,22.500000
2022-12-02T09:42:01.140Z,22.500000
2022-12-02T09:43:01.059Z,22.500000
2022-12-02T09:44:01.169Z,22.500000
2022-12-02T09:45:03.976Z,22.500000
2022-12-02T09:46:01.225Z,56.250000
2022-12-02T09:47:01.124Z,56.250000
2022-12-02T09:48:01.185Z,56.250000
2022-12-02T09:49:01.093Z,56.250000
2022-12-02T09:50:08.218Z,56.250000
2022-12-02T09:51:01.124Z,78.750000
2022-12-02T09:52:01.192Z,78.750000
2022-12-02T09:53:01.140Z,78.750000
2022-12-02T09:54:01.217Z,56.250000
2022-12-02T09:55:04.267Z,56.250000
2022-12-02T09:56:01.274Z,67.500000
2022-12-02T09:57:01.184Z,67.500000
2022-12-02T09:58:01.229Z,67.500000
2022-12-02T09:59:01.167Z,78.750000
2022-12-02T10:00:06.192Z,78.750000
2022-12-02T10:01:00.229Z,78.750000
2022-12-02T10:02:00.401Z,101.250000
2022-12-02T10:03:00.394Z,101.250000
2022-12-02T10:04:00.320Z,33.750000
2022-12-02T10:05:04.425Z,33.750000
2022-12-02T10:06:00.347Z,33.750000
2022-12-02T10:07:00.262Z,33.750000
2022-12-02T10:08:00.412Z,33.750000
2022-12-02T10:09:00.283Z,33.750000
2022-12-02T10:10:03.765Z,33.750000
2022-12-02T10:11:00.289Z,45.000000
2022-12-02T10:12:00.407Z,45.000000
2022-12-02T10:13:05.984Z,45.000000
2022-12-02T10:14:00.394Z,67.500000
2022-12-02T10:15:07.111Z,67.500000
2022-12-02T10:16:00.431Z,45.000000
2022-12-02T10:17:00.346Z,45.000000
2022-12-02T10:18:00.436Z,45.000000
2022-12-02T10:19:00.361Z,45.000000
2022-12-02T10:20:03.838Z,45.000000
2022-12-02T10:21:00.423Z,11.250000
2022-12-02T10:22:00.440Z,11.250000
2022-12-02T10:23:00.395Z,11.250000
2022-12-02T10:24:00.475Z,22.500000
2022-12-02T10:25:03.763Z,22.500000
2022-12-02T10:26:00.515Z,22.500000
2022-12-02T10:27:00.415Z,56.250000
2022-12-02T10:28:00.519Z,56.250000
2022-12-02T10:29:00.431Z,78.750000
2022-12-02T10:30:05.538Z,78.750000
2022-12-02T10:31:00.500Z,45.000000
2022-12-02T10:32:00.543Z,45.000000
2022-12-02T10:33:00.482Z,45.000000
2022-12-02T10:34:00.545Z,22.500000
2022-12-02T10:35:03.781Z,22.500000
2022-12-02T10:36:00.557Z,22.500000
2022-12-02T10:37:00.490Z,22.500000
2022-12-02T10:38:00.584Z,22.500000
2022-12-02T10:39:00.520Z,22.500000
2022-12-02T10:40:05.575Z,22.500000
2022-12-02T10:41:00.549Z,33.750000
2022-12-02T10:42:00.599Z,33.750000
2022-12-02T10:43:00.531Z,33.750000
2022-12-02T10:44:00.807Z,33.750000
2022-12-02T10:45:03.614Z,33.750000
2022-12-02T10:46:00.608Z,33.750000
2022-12-02T10:47:00.580Z,33.750000
2022-12-02T10:48:00.655Z,33.750000
2022-12-02T10:49:00.564Z,56.250000
2022-12-02T10:50:05.282Z,56.250000
2022-12-02T10:51:00.621Z,67.500000
2022-12-02T10:52:00.671Z,67.500000
2022-12-02T10:53:00.623Z,67.500000
2022-12-02T10:54:00.671Z,45.000000
2022-12-02T10:55:05.300Z,45.000000
2022-12-02T10:56:00.717Z,45.000000
2022-12-02T10:57:00.664Z,45.000000
2022-12-02T10:58:00.710Z,45.000000
2022-12-02T10:59:00.663Z,45.000000
2022-12-02T11:00:04.438Z,33.750000
2022-12-02T11:01:00.801Z,33.750000
2022-12-02T11:02:00.809Z,22.500000
2022-12-02T11:03:00.694Z,22.500000
2022-12-02T11:04:00.763Z,22.500000
2022-12-02T11:05:03.667Z,22.500000
2022-12-02T11:06:00.788Z,22.500000
2022-12-02T11:07:00.701Z,22.500000
2022-12-02T11:08:00.926Z,22.500000
2022-12-02T11:09:31.522Z,22.500000
2022-12-02T11:10:04.187Z,22.500000
2022-12-02T11:11:00.735Z,22.500000
2022-12-02T11:12:00.802Z,22.500000
2022-12-02T11:13:00.742Z,22.500000
2022-12-02T11:14:00.853Z,22.500000
2022-12-02T11:15:03.914Z,22.500000
2022-12-02T11:16:00.958Z,22.500000
2022-12-02T11:17:00.843Z,22.500000
2022-12-02T11:18:00.855Z,22.500000
2022-12-02T11:19:00.805Z,22.500000
2022-12-02T11:20:05.192Z,22.500000
2022-12-02T11:21:00.797Z,22.500000
2022-12-02T11:22:00.945Z,22.500000
2022-12-02T11:23:00.806Z,22.500000
2022-12-02T11:24:00.898Z,22.500000